sensor_id;sensor_type;location;lat;lon;timestamp;pressure;altitude;pressure_sealevel;temperature;humidity
47716;BME280;33476;50.984;3.538;2023-06-26T00:00:21;101482.66;;;24.61;45.19
47716;BME280;33476;50.984;3.538;2023-06-26T00:02:46;101478.31;;;24.60;45.37
47716;BME280;33476;50.984;3.538;2023-06-26T00:05:12;101479.97;;;24.61;45.43
47716;BME280;33476;50.984;3.538;2023-06-26T00:07:39;101474.69;;;24.51;45.92
47716;BME280;33476;50.984;3.538;2023-06-26T00:10:05;101477.41;;;24.42;46.36
47716;BME280;33476;50.984;3.538;2023-06-26T00:12:31;101477.41;;;24.42;46.73
47716;BME280;33476;50.984;3.538;2023-06-26T00:14:57;101482.44;;;24.45;46.64
47716;BME280;33476;50.984;3.538;2023-06-26T00:17:23;101479.94;;;24.43;46.56
47716;BME280;33476;50.984;3.538;2023-06-26T00:19:49;101489.06;;;24.41;47.07
47716;BME280;33476;50.984;3.538;2023-06-26T00:22:14;101492.72;;;24.40;46.93
47716;BME280;33476;50.984;3.538;2023-06-26T00:24:40;101489.06;;;24.41;47.07
47716;BME280;33476;50.984;3.538;2023-06-26T00:27:05;101493.72;;;24.38;46.93
47716;BME280;33476;50.984;3.538;2023-06-26T00:29:31;101494.16;;;24.34;47.38
47716;BME280;33476;50.984;3.538;2023-06-26T00:31:56;101504.41;;;24.29;47.67
47716;BME280;33476;50.984;3.538;2023-06-26T00:34:22;101505.53;;;24.26;47.96
47716;BME280;33476;50.984;3.538;2023-06-26T00:36:47;101513.28;;;24.20;48.45
47716;BME280;33476;50.984;3.538;2023-06-26T00:39:13;101503.88;;;24.16;48.60
47716;BME280;33476;50.984;3.538;2023-06-26T00:41:39;101505.59;;;24.17;48.64
47716;BME280;33476;50.984;3.538;2023-06-26T00:44:05;101504.97;;;24.23;48.65
47716;BME280;33476;50.984;3.538;2023-06-26T00:46:31;101510.47;;;24.21;48.96
47716;BME280;33476;50.984;3.538;2023-06-26T00:48:59;101514.69;;;24.14;49.14
47716;BME280;33476;50.984;3.538;2023-06-26T00:51:29;101515.28;;;24.08;49.67
47716;BME280;33476;50.984;3.538;2023-06-26T00:53:55;101519.06;;;24.05;48.91
47716;BME280;33476;50.984;3.538;2023-06-26T00:56:21;101511.75;;;24.07;49.83
47716;BME280;33476;50.984;3.538;2023-06-26T00:58:47;101517.84;;;24.00;49.98
47716;BME280;33476;50.984;3.538;2023-06-26T01:01:13;101515.75;;;23.94;50.44
47716;BME280;33476;50.984;3.538;2023-06-26T01:03:43;101515.06;;;23.92;50.65
47716;BME280;33476;50.984;3.538;2023-06-26T01:06:10;101516.56;;;23.94;51.05
47716;BME280;33476;50.984;3.538;2023-06-26T01:08:37;101522.59;;;23.96;50.75
47716;BME280;33476;50.984;3.538;2023-06-26T01:11:03;101519.41;;;23.93;51.08
47716;BME280;33476;50.984;3.538;2023-06-26T01:13:29;101511.66;;;23.90;51.38
47716;BME280;33476;50.984;3.538;2023-06-26T01:15:55;101512.38;;;23.82;51.59
47716;BME280;33476;50.984;3.538;2023-06-26T01:18:22;101526.00;;;23.79;51.96
47716;BME280;33476;50.984;3.538;2023-06-26T01:20:50;101524.88;;;23.81;51.72
47716;BME280;33476;50.984;3.538;2023-06-26T01:26:19;101523.47;;;23.77;52.27
47716;BME280;33476;50.984;3.538;2023-06-26T01:28:46;101528.81;;;23.77;52.29
47716;BME280;33476;50.984;3.538;2023-06-26T01:31:13;101523.06;;;23.72;52.75
47716;BME280;33476;50.984;3.538;2023-06-26T01:33:40;101528.25;;;23.74;52.82
47716;BME280;33476;50.984;3.538;2023-06-26T01:36:06;101535.84;;;23.69;52.86
47716;BME280;33476;50.984;3.538;2023-06-26T01:38:32;101536.00;;;23.67;53.21
47716;BME280;33476;50.984;3.538;2023-06-26T01:40:58;101543.28;;;23.65;53.12
47716;BME280;33476;50.984;3.538;2023-06-26T01:46:29;101546.06;;;23.54;53.75
47716;BME280;33476;50.984;3.538;2023-06-26T01:49:05;101558.97;;;23.49;53.86
47716;BME280;33476;50.984;3.538;2023-06-26T01:51:38;101560.22;;;23.45;54.09
47716;BME280;33476;50.984;3.538;2023-06-26T01:54:10;101565.56;;;23.45;54.27
47716;BME280;33476;50.984;3.538;2023-06-26T01:56:38;101568.38;;;23.43;54.20
47716;BME280;33476;50.984;3.538;2023-06-26T01:59:06;101567.38;;;23.44;54.35
47716;BME280;33476;50.984;3.538;2023-06-26T02:01:32;101571.19;;;23.42;54.39
47716;BME280;33476;50.984;3.538;2023-06-26T02:03:59;101567.78;;;23.40;54.50
47716;BME280;33476;50.984;3.538;2023-06-26T02:06:24;101569.22;;;23.34;54.66
47716;BME280;33476;50.984;3.538;2023-06-26T02:08:50;101577.75;;;23.28;55.00
47716;BME280;33476;50.984;3.538;2023-06-26T02:11:15;101582.25;;;23.27;54.91
47716;BME280;33476;50.984;3.538;2023-06-26T02:13:40;101574.63;;;23.23;54.83
47716;BME280;33476;50.984;3.538;2023-06-26T02:16:06;101583.16;;;23.17;54.98
47716;BME280;33476;50.984;3.538;2023-06-26T02:18:31;101582.16;;;23.08;55.30
47716;BME280;33476;50.984;3.538;2023-06-26T02:20:56;101585.81;;;23.07;55.33
47716;BME280;33476;50.984;3.538;2023-06-26T02:23:22;101586.50;;;22.99;55.53
47716;BME280;33476;50.984;3.538;2023-06-26T02:25:47;101588.97;;;22.91;55.49
47716;BME280;33476;50.984;3.538;2023-06-26T02:28:12;101592.63;;;22.90;55.90
47716;BME280;33476;50.984;3.538;2023-06-26T02:30:38;101594.59;;;22.88;55.80
47716;BME280;33476;50.984;3.538;2023-06-26T02:33:03;101592.22;;;22.85;55.95
47716;BME280;33476;50.984;3.538;2023-06-26T02:35:28;101590.50;;;22.84;55.87
47716;BME280;33476;50.984;3.538;2023-06-26T02:37:53;101592.00;;;22.77;55.88
47716;BME280;33476;50.984;3.538;2023-06-26T02:40:19;101588.19;;;22.70;56.21
47716;BME280;33476;50.984;3.538;2023-06-26T02:42:44;101592.34;;;22.63;56.20
47716;BME280;33476;50.984;3.538;2023-06-26T02:45:09;101595.16;;;22.61;56.17
47716;BME280;33476;50.984;3.538;2023-06-26T02:47:35;101595.16;;;22.61;55.98
47716;BME280;33476;50.984;3.538;2023-06-26T02:50:02;101599.50;;;22.62;56.23
47716;BME280;33476;50.984;3.538;2023-06-26T02:52:27;101601.72;;;22.57;55.77
47716;BME280;33476;50.984;3.538;2023-06-26T02:54:53;101605.16;;;22.48;56.08
47716;BME280;33476;50.984;3.538;2023-06-26T02:57:19;101607.41;;;22.43;55.87
47716;BME280;33476;50.984;3.538;2023-06-26T02:59:44;101605.56;;;22.43;56.00
47716;BME280;33476;50.984;3.538;2023-06-26T03:02:09;101610.16;;;22.41;55.98
47716;BME280;33476;50.984;3.538;2023-06-26T03:04:35;101612.97;;;22.40;55.78
47716;BME280;33476;50.984;3.538;2023-06-26T03:07:02;101621.78;;;22.40;55.50
47716;BME280;33476;50.984;3.538;2023-06-26T03:09:27;101623.03;;;22.36;55.65
47716;BME280;33476;50.984;3.538;2023-06-26T03:11:53;101625.22;;;22.31;55.55
47716;BME280;33476;50.984;3.538;2023-06-26T03:14:20;101623.91;;;22.26;55.58
47716;BME280;33476;50.984;3.538;2023-06-26T03:16:46;101624.47;;;22.20;55.61
47716;BME280;33476;50.984;3.538;2023-06-26T03:19:11;101620.22;;;22.17;55.56
47716;BME280;33476;50.984;3.538;2023-06-26T03:21:36;101630.75;;;22.19;55.20
47716;BME280;33476;50.984;3.538;2023-06-26T03:24:02;101635.47;;;22.15;54.98
47716;BME280;33476;50.984;3.538;2023-06-26T03:26:27;101631.41;;;22.11;55.07
47716;BME280;33476;50.984;3.538;2023-06-26T03:28:54;101628.13;;;22.07;55.02
47716;BME280;33476;50.984;3.538;2023-06-26T03:31:19;101625.00;;;22.02;55.14
47716;BME280;33476;50.984;3.538;2023-06-26T03:33:45;101630.69;;;21.98;55.01
47716;BME280;33476;50.984;3.538;2023-06-26T03:36:10;101633.00;;;21.91;54.94
47716;BME280;33476;50.984;3.538;2023-06-26T03:38:36;101634.81;;;21.91;54.78
47716;BME280;33476;50.984;3.538;2023-06-26T03:41:01;101644.50;;;21.92;54.72
47716;BME280;33476;50.984;3.538;2023-06-26T03:43:27;101645.59;;;21.89;54.47
47716;BME280;33476;50.984;3.538;2023-06-26T03:45:52;101644.69;;;21.79;54.56
47716;BME280;33476;50.984;3.538;2023-06-26T03:48:18;101648.31;;;21.78;54.19
47716;BME280;33476;50.984;3.538;2023-06-26T03:50:44;101657.25;;;21.77;54.00
47716;BME280;33476;50.984;3.538;2023-06-26T03:53:09;101659.06;;;21.76;53.97
47716;BME280;33476;50.984;3.538;2023-06-26T03:55:34;101660.88;;;21.76;53.74
47716;BME280;33476;50.984;3.538;2023-06-26T03:58:00;101668.97;;;21.74;53.58
47716;BME280;33476;50.984;3.538;2023-06-26T04:00:25;101672.59;;;21.73;53.46
47716;BME280;33476;50.984;3.538;2023-06-26T04:02:50;101671.19;;;21.69;53.25
47716;BME280;33476;50.984;3.538;2023-06-26T04:05:16;101672.16;;;21.68;53.11
47716;BME280;33476;50.984;3.538;2023-06-26T04:07:42;101683.00;;;21.65;52.92
47716;BME280;33476;50.984;3.538;2023-06-26T04:10:08;101678.94;;;21.61;52.93
47716;BME280;33476;50.984;3.538;2023-06-26T04:12:33;101682.31;;;21.63;52.68
47716;BME280;33476;50.984;3.538;2023-06-26T04:14:58;101679.78;;;21.62;52.54
47716;BME280;33476;50.984;3.538;2023-06-26T04:17:24;101682.56;;;21.60;52.49
47716;BME280;33476;50.984;3.538;2023-06-26T04:19:49;101681.69;;;21.59;52.16
47716;BME280;33476;50.984;3.538;2023-06-26T04:22:14;101687.00;;;21.59;51.96
47716;BME280;33476;50.984;3.538;2023-06-26T04:24:40;101688.09;;;21.57;51.99
47716;BME280;33476;50.984;3.538;2023-06-26T04:27:05;101688.25;;;21.55;51.89
47716;BME280;33476;50.984;3.538;2023-06-26T04:29:31;101693.56;;;21.55;51.69
47716;BME280;33476;50.984;3.538;2023-06-26T04:31:56;101695.09;;;21.58;51.33
47716;BME280;33476;50.984;3.538;2023-06-26T04:34:24;101701.41;;;21.57;51.44
47716;BME280;33476;50.984;3.538;2023-06-26T04:36:50;101709.50;;;21.55;51.17
47716;BME280;33476;50.984;3.538;2023-06-26T04:39:15;101713.13;;;21.54;51.05
47716;BME280;33476;50.984;3.538;2023-06-26T04:41:41;101707.69;;;21.56;51.08
47716;BME280;33476;50.984;3.538;2023-06-26T04:44:06;101717.97;;;21.61;50.83
47716;BME280;33476;50.984;3.538;2023-06-26T04:46:32;101713.59;;;21.59;50.82
47716;BME280;33476;50.984;3.538;2023-06-26T04:48:57;101713.50;;;21.61;50.58
47716;BME280;33476;50.984;3.538;2023-06-26T04:51:24;101712.03;;;21.57;50.64
47716;BME280;33476;50.984;3.538;2023-06-26T04:53:49;101718.56;;;21.53;50.73
47716;BME280;33476;50.984;3.538;2023-06-26T04:56:15;101718.56;;;21.53;50.72
47716;BME280;33476;50.984;3.538;2023-06-26T04:58:40;101726.66;;;21.51;50.56
47716;BME280;33476;50.984;3.538;2023-06-26T05:01:05;101731.25;;;21.49;50.57
47716;BME280;33476;50.984;3.538;2023-06-26T05:03:32;101736.69;;;21.48;50.63
47716;BME280;33476;50.984;3.538;2023-06-26T05:05:57;101743.94;;;21.46;50.78
47716;BME280;33476;50.984;3.538;2023-06-26T05:08:24;101747.31;;;21.48;50.78
47716;BME280;33476;50.984;3.538;2023-06-26T05:10:51;101747.91;;;21.51;50.69
47716;BME280;33476;50.984;3.538;2023-06-26T05:13:18;101754.59;;;21.46;50.77
47716;BME280;33476;50.984;3.538;2023-06-26T05:15:45;101754.19;;;21.50;50.64
47716;BME280;33476;50.984;3.538;2023-06-26T05:18:10;101757.47;;;21.54;50.59
47716;BME280;33476;50.984;3.538;2023-06-26T05:20:36;101756.50;;;21.55;50.50
47716;BME280;33476;50.984;3.538;2023-06-26T05:23:02;101758.19;;;21.56;50.60
47716;BME280;33476;50.984;3.538;2023-06-26T05:25:29;101764.97;;;21.60;50.51
47716;BME280;33476;50.984;3.538;2023-06-26T05:27:56;101760.50;;;21.61;50.57
47716;BME280;33476;50.984;3.538;2023-06-26T05:30:22;101763.88;;;21.63;50.41
47716;BME280;33476;50.984;3.538;2023-06-26T05:32:47;101758.56;;;21.63;50.60
47716;BME280;33476;50.984;3.538;2023-06-26T05:35:14;101757.47;;;21.65;50.59
47716;BME280;33476;50.984;3.538;2023-06-26T05:37:41;101763.25;;;21.70;50.50
47716;BME280;33476;50.984;3.538;2023-06-26T05:40:07;101762.88;;;21.75;50.32
47716;BME280;33476;50.984;3.538;2023-06-26T05:42:34;101763.00;;;21.73;50.32
47716;BME280;33476;50.984;3.538;2023-06-26T05:44:59;101763.38;;;21.80;50.49
47716;BME280;33476;50.984;3.538;2023-06-26T05:47:25;101763.47;;;21.90;50.36
47716;BME280;33476;50.984;3.538;2023-06-26T05:49:50;101773.75;;;21.94;50.08
47716;BME280;33476;50.984;3.538;2023-06-26T05:52:16;101772.38;;;22.00;50.06
47716;BME280;33476;50.984;3.538;2023-06-26T05:54:41;101778.91;;;22.07;49.75
47716;BME280;33476;50.984;3.538;2023-06-26T05:57:07;101781.47;;;22.08;49.64
47716;BME280;33476;50.984;3.538;2023-06-26T05:59:33;101786.44;;;22.13;49.70
47716;BME280;33476;50.984;3.538;2023-06-26T06:02:01;101782.31;;;22.20;49.35
47716;BME280;33476;50.984;3.538;2023-06-26T06:04:26;101785.06;;;22.30;49.43
47716;BME280;33476;50.984;3.538;2023-06-26T06:06:52;101781.88;;;22.36;49.14
47716;BME280;33476;50.984;3.538;2023-06-26T06:09:17;101792.00;;;22.42;48.89
47716;BME280;33476;50.984;3.538;2023-06-26T06:11:43;101788.00;;;22.48;48.96
47716;BME280;33476;50.984;3.538;2023-06-26T06:14:08;101796.47;;;22.53;48.85
47716;BME280;33476;50.984;3.538;2023-06-26T06:16:34;101818.13;;;22.59;48.71
47716;BME280;33476;50.984;3.538;2023-06-26T06:18:59;101815.03;;;22.64;48.74
47716;BME280;33476;50.984;3.538;2023-06-26T06:21:24;101828.69;;;22.70;48.67
47716;BME280;33476;50.984;3.538;2023-06-26T06:23:50;101835.09;;;22.79;48.73
47716;BME280;33476;50.984;3.538;2023-06-26T06:26:15;101818.94;;;22.92;48.51
47716;BME280;33476;50.984;3.538;2023-06-26T06:28:40;101816.72;;;22.97;48.48
47716;BME280;33476;50.984;3.538;2023-06-26T06:31:06;101827.72;;;23.04;47.98
47716;BME280;33476;50.984;3.538;2023-06-26T06:33:31;101828.84;;;23.01;48.03
47716;BME280;33476;50.984;3.538;2023-06-26T06:35:57;101834.75;;;23.05;48.44
47716;BME280;33476;50.984;3.538;2023-06-26T06:38:22;101835.41;;;23.18;48.02
47716;BME280;33476;50.984;3.538;2023-06-26T06:40:48;101836.28;;;23.28;47.83
47716;BME280;33476;50.984;3.538;2023-06-26T06:43:13;101834.53;;;23.38;47.86
47716;BME280;33476;50.984;3.538;2023-06-26T06:45:39;101838.81;;;23.50;47.61
47716;BME280;33476;50.984;3.538;2023-06-26T06:48:05;101849.41;;;23.62;47.30
47716;BME280;33476;50.984;3.538;2023-06-26T06:50:30;101850.44;;;23.70;47.32
47716;BME280;33476;50.984;3.538;2023-06-26T06:52:56;101851.75;;;23.86;46.60
47716;BME280;33476;50.984;3.538;2023-06-26T06:55:21;101859.94;;;23.94;46.39
47716;BME280;33476;50.984;3.538;2023-06-26T06:57:47;101868.25;;;24.00;46.16
47716;BME280;33476;50.984;3.538;2023-06-26T07:00:13;101861.25;;;24.09;45.92
47716;BME280;33476;50.984;3.538;2023-06-26T07:02:43;101871.66;;;24.12;45.86
47716;BME280;33476;50.984;3.538;2023-06-26T07:05:09;101865.34;;;24.13;45.42
47716;BME280;33476;50.984;3.538;2023-06-26T07:07:35;101862.81;;;24.21;45.34
47716;BME280;33476;50.984;3.538;2023-06-26T07:10:06;101854.28;;;24.27;45.62
47716;BME280;33476;50.984;3.538;2023-06-26T07:12:31;101864.84;;;24.38;45.30
47716;BME280;33476;50.984;3.538;2023-06-26T07:14:57;101861.94;;;24.51;45.62
47716;BME280;33476;50.984;3.538;2023-06-26T07:17:23;101877.28;;;24.59;44.50
47716;BME280;33476;50.984;3.538;2023-06-26T07:19:49;101871.78;;;24.60;44.50
47716;BME280;33476;50.984;3.538;2023-06-26T07:22:15;101872.34;;;24.64;44.28
47716;BME280;33476;50.984;3.538;2023-06-26T07:24:40;101868.41;;;24.68;44.26
47716;BME280;33476;50.984;3.538;2023-06-26T07:27:06;101867.88;;;24.74;44.34
47716;BME280;33476;50.984;3.538;2023-06-26T07:29:31;101876.00;;;24.82;44.26
47716;BME280;33476;50.984;3.538;2023-06-26T07:31:57;101871.38;;;24.94;44.49
47716;BME280;33476;50.984;3.538;2023-06-26T07:34:22;101859.69;;;25.05;43.22
47716;BME280;33476;50.984;3.538;2023-06-26T07:36:47;101871.97;;;25.07;43.17
47716;BME280;33476;50.984;3.538;2023-06-26T07:39:13;101883.47;;;25.17;43.03
47716;BME280;33476;50.984;3.538;2023-06-26T07:41:38;101879.50;;;25.31;42.86
47716;BME280;33476;50.984;3.538;2023-06-26T07:44:03;101881.06;;;25.34;42.63
47716;BME280;33476;50.984;3.538;2023-06-26T07:46:29;101887.97;;;25.27;42.46
47716;BME280;33476;50.984;3.538;2023-06-26T07:48:54;101887.28;;;25.25;42.46
47716;BME280;33476;50.984;3.538;2023-06-26T07:51:20;101894.47;;;25.24;42.15
47716;BME280;33476;50.984;3.538;2023-06-26T07:53:45;101895.69;;;25.30;42.08
47716;BME280;33476;50.984;3.538;2023-06-26T07:56:11;101884.00;;;25.40;42.24
47716;BME280;33476;50.984;3.538;2023-06-26T07:58:36;101898.59;;;25.56;41.33
47716;BME280;33476;50.984;3.538;2023-06-26T08:01:01;101899.44;;;25.66;41.32
47716;BME280;33476;50.984;3.538;2023-06-26T08:03:27;101899.28;;;25.67;41.01
47716;BME280;33476;50.984;3.538;2023-06-26T08:05:52;101903.63;;;25.68;41.14
47716;BME280;33476;50.984;3.538;2023-06-26T08:08:17;101905.78;;;25.74;40.99
47716;BME280;33476;50.984;3.538;2023-06-26T08:10:44;101903.63;;;25.78;41.10
47716;BME280;33476;50.984;3.538;2023-06-26T08:13:09;101893.19;;;25.85;40.84
47716;BME280;33476;50.984;3.538;2023-06-26T08:15:35;101894.88;;;25.86;40.60
47716;BME280;33476;50.984;3.538;2023-06-26T08:18:00;101902.94;;;25.76;40.77
47716;BME280;33476;50.984;3.538;2023-06-26T08:20:25;101896.72;;;25.85;40.49
47716;BME280;33476;50.984;3.538;2023-06-26T08:22:51;101903.00;;;25.94;40.56
47716;BME280;33476;50.984;3.538;2023-06-26T08:25:17;101894.78;;;26.05;40.14
47716;BME280;33476;50.984;3.538;2023-06-26T08:27:43;101897.97;;;26.18;40.19
47716;BME280;33476;50.984;3.538;2023-06-26T08:30:08;101898.66;;;26.20;39.37
47716;BME280;33476;50.984;3.538;2023-06-26T08:32:34;101901.16;;;26.22;38.32
47716;BME280;33476;50.984;3.538;2023-06-26T08:35:00;101905.34;;;26.34;38.52
47716;BME280;33476;50.984;3.538;2023-06-26T08:37:25;101910.59;;;26.53;38.26
47716;BME280;33476;50.984;3.538;2023-06-26T08:39:50;101905.41;;;26.70;38.16
47716;BME280;33476;50.984;3.538;2023-06-26T08:42:16;101917.69;;;26.90;37.82
47716;BME280;33476;50.984;3.538;2023-06-26T08:44:41;101919.22;;;26.93;37.97
47716;BME280;33476;50.984;3.538;2023-06-26T08:47:07;101918.66;;;26.89;37.88
47716;BME280;33476;50.984;3.538;2023-06-26T08:49:53;101919.66;;;26.70;37.54
47716;BME280;33476;50.984;3.538;2023-06-26T08:52:30;101918.22;;;26.76;37.90
47716;BME280;33476;50.984;3.538;2023-06-26T08:54:59;101931.53;;;26.85;37.87
47716;BME280;33476;50.984;3.538;2023-06-26T08:57:26;101937.22;;;26.82;37.07
47716;BME280;33476;50.984;3.538;2023-06-26T08:59:52;101934.59;;;26.91;36.88
47716;BME280;33476;50.984;3.538;2023-06-26T09:02:19;101930.00;;;26.83;37.06
47716;BME280;33476;50.984;3.538;2023-06-26T09:04:47;101932.44;;;26.76;36.60
47716;BME280;33476;50.984;3.538;2023-06-26T09:07:13;101926.53;;;26.73;37.12
47716;BME280;33476;50.984;3.538;2023-06-26T09:09:38;101928.28;;;26.64;36.30
47716;BME280;33476;50.984;3.538;2023-06-26T09:12:04;101934.28;;;26.58;36.84
47716;BME280;33476;50.984;3.538;2023-06-26T09:14:29;101920.50;;;26.71;36.71
47716;BME280;33476;50.984;3.538;2023-06-26T09:16:55;101932.38;;;26.86;35.99
47716;BME280;33476;50.984;3.538;2023-06-26T09:19:20;101914.19;;;27.07;35.71
47716;BME280;33476;50.984;3.538;2023-06-26T09:21:49;101921.19;;;27.26;35.96
47716;BME280;33476;50.984;3.538;2023-06-26T09:24:16;101928.03;;;27.47;34.99
47716;BME280;33476;50.984;3.538;2023-06-26T09:26:41;101927.25;;;27.54;34.62
47716;BME280;33476;50.984;3.538;2023-06-26T09:29:08;101940.16;;;27.51;34.88
47716;BME280;33476;50.984;3.538;2023-06-26T09:31:36;101940.09;;;27.42;34.51
47716;BME280;33476;50.984;3.538;2023-06-26T09:34:02;101945.59;;;27.59;34.17
47716;BME280;33476;50.984;3.538;2023-06-26T09:36:29;101944.19;;;27.73;34.33
47716;BME280;33476;50.984;3.538;2023-06-26T09:39:02;101951.34;;;27.90;33.91
47716;BME280;33476;50.984;3.538;2023-06-26T09:41:28;101958.22;;;27.92;34.52
47716;BME280;33476;50.984;3.538;2023-06-26T09:43:58;101966.50;;;27.99;33.38
47716;BME280;33476;50.984;3.538;2023-06-26T09:46:27;101959.50;;;28.06;33.14
47716;BME280;33476;50.984;3.538;2023-06-26T09:49:05;101956.31;;;28.11;33.43
47716;BME280;33476;50.984;3.538;2023-06-26T09:51:35;101960.53;;;28.21;32.86
47716;BME280;33476;50.984;3.538;2023-06-26T09:54:01;101960.88;;;28.18;32.49
47716;BME280;33476;50.984;3.538;2023-06-26T09:56:28;101957.47;;;28.08;32.70
47716;BME280;33476;50.984;3.538;2023-06-26T09:58:59;101965.88;;;28.13;32.85
47716;BME280;33476;50.984;3.538;2023-06-26T10:01:25;101973.84;;;28.23;32.32
47716;BME280;33476;50.984;3.538;2023-06-26T10:03:51;101965.78;;;28.23;32.15
47716;BME280;33476;50.984;3.538;2023-06-26T10:06:33;101969.94;;;28.17;31.65
47716;BME280;33476;50.984;3.538;2023-06-26T10:09:00;101973.94;;;28.13;31.13
47716;BME280;33476;50.984;3.538;2023-06-26T10:11:33;101971.38;;;28.04;31.83
47716;BME280;33476;50.984;3.538;2023-06-26T10:14:01;101984.19;;;27.84;32.22
47716;BME280;33476;50.984;3.538;2023-06-26T10:16:28;101972.84;;;27.72;32.72
47716;BME280;33476;50.984;3.538;2023-06-26T10:19:00;101977.97;;;27.83;32.83
47716;BME280;33476;50.984;3.538;2023-06-26T10:21:27;101974.50;;;27.91;32.01
47716;BME280;33476;50.984;3.538;2023-06-26T10:23:56;101963.81;;;27.99;32.30
47716;BME280;33476;50.984;3.538;2023-06-26T10:26:22;101977.53;;;28.22;31.48
47716;BME280;33476;50.984;3.538;2023-06-26T10:28:52;101971.91;;;28.33;31.13
47716;BME280;33476;50.984;3.538;2023-06-26T10:31:23;101961.81;;;28.35;31.32
47716;BME280;33476;50.984;3.538;2023-06-26T10:33:51;101973.06;;;28.31;31.22
47716;BME280;33476;50.984;3.538;2023-06-26T10:36:27;101968.31;;;28.24;31.60
47716;BME280;33476;50.984;3.538;2023-06-26T10:38:57;101963.28;;;28.30;31.32
47716;BME280;33476;50.984;3.538;2023-06-26T10:41:24;101961.81;;;28.35;31.61
47716;BME280;33476;50.984;3.538;2023-06-26T10:46:24;101980.22;;;28.22;31.14
47716;BME280;33476;50.984;3.538;2023-06-26T10:49:00;101981.69;;;28.16;31.34
47716;BME280;33476;50.984;3.538;2023-06-26T10:51:26;101985.31;;;28.33;31.27
47716;BME280;33476;50.984;3.538;2023-06-26T10:53:58;101986.00;;;28.35;31.23
47716;BME280;33476;50.984;3.538;2023-06-26T10:59:14;101992.28;;;28.52;30.89
47716;BME280;33476;50.984;3.538;2023-06-26T11:01:41;101996.50;;;28.63;31.08
47716;BME280;33476;50.984;3.538;2023-06-26T11:04:08;102002.22;;;28.60;30.66
47716;BME280;33476;50.984;3.538;2023-06-26T11:06:36;101999.25;;;28.79;30.56
47716;BME280;33476;50.984;3.538;2023-06-26T11:14:17;102003.72;;;28.62;30.39
47716;BME280;33476;50.984;3.538;2023-06-26T11:16:43;101998.16;;;28.47;30.21
47716;BME280;33476;50.984;3.538;2023-06-26T11:19:09;102005.38;;;28.47;30.55
47716;BME280;33476;50.984;3.538;2023-06-26T11:21:37;102002.75;;;28.63;30.93
47716;BME280;33476;50.984;3.538;2023-06-26T11:24:04;102002.41;;;28.66;30.92
47716;BME280;33476;50.984;3.538;2023-06-26T11:26:31;102007.41;;;28.53;30.73
47716;BME280;33476;50.984;3.538;2023-06-26T11:29:02;102005.50;;;28.45;30.57
47716;BME280;33476;50.984;3.538;2023-06-26T11:31:29;101999.25;;;28.37;30.80
47716;BME280;33476;50.984;3.538;2023-06-26T11:34:00;102000.16;;;28.53;31.77
47716;BME280;33476;50.984;3.538;2023-06-26T11:36:26;102004.13;;;28.75;31.00
47716;BME280;33476;50.984;3.538;2023-06-26T11:38:56;101997.28;;;28.89;30.98
47716;BME280;33476;50.984;3.538;2023-06-26T11:41:23;102006.53;;;28.95;30.61
47716;BME280;33476;50.984;3.538;2023-06-26T11:43:48;102015.78;;;28.92;29.87
47716;BME280;33476;50.984;3.538;2023-06-26T11:46:16;102020.75;;;28.79;30.14
47716;BME280;33476;50.984;3.538;2023-06-26T11:48:43;102020.69;;;28.63;30.55
47716;BME280;33476;50.984;3.538;2023-06-26T11:51:08;102021.50;;;28.47;30.61
47716;BME280;33476;50.984;3.538;2023-06-26T11:53:39;102024.47;;;28.36;30.77
47716;BME280;33476;50.984;3.538;2023-06-26T11:56:13;102019.16;;;28.52;30.09
47716;BME280;33476;50.984;3.538;2023-06-26T11:58:58;102024.72;;;28.59;30.58
47716;BME280;33476;50.984;3.538;2023-06-26T12:01:26;102021.22;;;28.66;30.50
47716;BME280;33476;50.984;3.538;2023-06-26T12:03:57;102015.81;;;28.58;30.82
47716;BME280;33476;50.984;3.538;2023-06-26T12:06:23;102018.53;;;28.66;30.62
47716;BME280;33476;50.984;3.538;2023-06-26T12:08:49;102027.66;;;28.73;30.17
47716;BME280;33476;50.984;3.538;2023-06-26T12:11:15;102013.38;;;28.81;30.25
47716;BME280;33476;50.984;3.538;2023-06-26T12:13:40;102014.97;;;29.00;30.68
47716;BME280;33476;50.984;3.538;2023-06-26T12:16:06;102026.41;;;29.18;30.30
47716;BME280;33476;50.984;3.538;2023-06-26T12:18:35;102027.78;;;29.22;30.06
47716;BME280;33476;50.984;3.538;2023-06-26T12:21:01;102023.41;;;29.13;29.66
47716;BME280;33476;50.984;3.538;2023-06-26T12:23:32;102024.16;;;28.89;29.27
47716;BME280;33476;50.984;3.538;2023-06-26T12:25:58;102026.47;;;28.76;29.50
47716;BME280;33476;50.984;3.538;2023-06-26T12:28:24;102031.81;;;28.68;29.63
47716;BME280;33476;50.984;3.538;2023-06-26T12:31:15;102033.00;;;28.65;29.53
47716;BME280;33476;50.984;3.538;2023-06-26T12:33:44;102028.75;;;28.63;29.29
47716;BME280;33476;50.984;3.538;2023-06-26T12:36:13;102034.22;;;28.45;29.39
47716;BME280;33476;50.984;3.538;2023-06-26T12:38:40;102033.03;;;28.31;29.33
47716;BME280;33476;50.984;3.538;2023-06-26T12:41:05;102024.25;;;28.29;29.60
47716;BME280;33476;50.984;3.538;2023-06-26T12:43:30;102025.84;;;28.40;29.99
47716;BME280;33476;50.984;3.538;2023-06-26T12:45:56;102023.72;;;28.60;29.59
47716;BME280;33476;50.984;3.538;2023-06-26T12:48:36;102032.19;;;28.73;29.17
47716;BME280;33476;50.984;3.538;2023-06-26T12:51:08;102028.16;;;28.85;29.59
47716;BME280;33476;50.984;3.538;2023-06-26T12:53:34;102030.66;;;28.78;28.43
47716;BME280;33476;50.984;3.538;2023-06-26T12:55:59;102034.47;;;28.60;29.23
47716;BME280;33476;50.984;3.538;2023-06-26T12:58:24;102039.31;;;28.48;29.56
47716;BME280;33476;50.984;3.538;2023-06-26T13:00:49;102032.63;;;28.26;29.89
47716;BME280;33476;50.984;3.538;2023-06-26T13:03:15;102041.31;;;28.20;30.96